Historique des mesures à Cassis (13260), France
Quotidien Résumé Juin 29, 2018 Unités:  Métrique    US   Métrique/US
« Précédent (Jour)
Suivant (Jour) »
Quotidien Hebdomadaire Mensuel Annuel Période au choix
  Maximum: Minimum: Moyenne:
Température: TemperatureC °C 19.9 °C 23.7 °C
Point de rosée: DewpointC °C 13.7 °C 17.1 °C
Humidité: Humidity % 60 % 63 %
Vitesse du vent: 0 km/h 0 km/h 4.8 km/h
Rafales: 0 km/h - -
Vent:- - SSW
Pression: PressurehPa hPa 1006.8 hPa -
Précipitations: 0.0 mm    
Historical Graphs
 
 
Mesures pour : Juin 29, 2018
Heure Temperature Point de rosée Pression Vent Vitesse du vent Rafales Humidité Pluie (par heure) Conditions
TemperatureC °C DewpointC °C PressurehPa hPa Calm     Humidity % HourlyPrecipMM mm SoftwareType W/m2
00:10 22.0 °C 16.1 °C 1007.6 hPa Calm     69 % 0.0 mm open2300-1.11 W/m2
01:10 21.4 °C 15.9 °C 1007.3 hPa Calm   2.9 km/h 71 % 0.0 mm open2300-1.11 W/m2
02:10 20.6 °C 14.4 °C 1006.8 hPa NW 6.9 km/h 6.9 km/h 68 % 0.0 mm open2300-1.11 W/m2
03:10 20.5 °C 13.7 °C 1007.1 hPa Calm   2.9 km/h 65 % 0.0 mm open2300-1.11 W/m2
04:10 20.2 °C 14.3 °C 1007.1 hPa Calm   5.6 km/h 69 % 0.0 mm open2300-1.11 W/m2
05:10 19.9 °C 14.7 °C 1006.8 hPa NW 6.9 km/h 6.9 km/h 72 % 0.0 mm open2300-1.11 W/m2
06:10 19.9 °C 14.9 °C 1006.9 hPa Calm   3.4 km/h 73 % 0.0 mm open2300-1.11 W/m2
07:10 20.4 °C 15.0 °C 1007.0 hPa NW 2.9 km/h 4.2 km/h 71 % 0.0 mm open2300-1.11 W/m2
08:10 22.9 °C 16.4 °C 1007.3 hPa Calm   2.3 km/h 67 % 0.0 mm open2300-1.11 W/m2
09:10 23.7 °C 16.9 °C 1007.6 hPa ESE 6.9 km/h 7.6 km/h 66 % 0.0 mm open2300-1.11 W/m2
10:10 25.5 °C 18.9 °C 1007.9 hPa SE 5.1 km/h 8 km/h 67 % 0.0 mm open2300-1.11 W/m2
11:10 27.9 °C 20.2 °C 1008.1 hPa SW 3.4 km/h 4.2 km/h 63 % 0.0 mm open2300-1.11 W/m2
12:10 28.9 °C 20.9 °C 1008.0 hPa SE 10.9 km/h 10.9 km/h 62 % 0.0 mm open2300-1.11 W/m2
13:10 29.4 °C 20.8 °C 1007.9 hPa South 12.2 km/h 12.2 km/h 60 % 0.0 mm open2300-1.11 W/m2
14:10 29.8 °C 21.2 °C 1007.6 hPa SE 12.7 km/h 12.7 km/h 60 % 0.0 mm open2300-1.11 W/m2
15:10 29.1 °C 20.8 °C 1007.6 hPa NNE 10.9 km/h 10.9 km/h 61 % 0.0 mm open2300-1.11 W/m2
16:10 29.4 °C 21.1 °C 1007.5 hPa SSE 4.7 km/h 5.1 km/h 61 % 0.0 mm open2300-1.11 W/m2
17:10 28.9 °C 20.7 °C 1007.3 hPa South 9.8 km/h 9.8 km/h 61 % 0.0 mm open2300-1.11 W/m2
18:10 28.1 °C 19.8 °C 1007.4 hPa SE 4.7 km/h 5.6 km/h 61 % 0.0 mm open2300-1.11 W/m2
19:10 27.3 °C 19.6 °C 1007.1 hPa ENE 2.9 km/h 8 km/h 63 % 0.0 mm open2300-1.11 W/m2
20:10 26.5 °C 19.1 °C 1007.0 hPa SSW 10.3 km/h 13.2 km/h 64 % 0.0 mm open2300-1.11 W/m2
21:10 25.0 °C 17.7 °C 1007.2 hPa NW 6.9 km/h 6.9 km/h 64 % 0.0 mm open2300-1.11 W/m2
22:10 23.5 °C 16.8 °C 1007.4 hPa NNW 3.4 km/h 5.1 km/h 66 % 0.0 mm open2300-1.11 W/m2
23:10 22.7 °C 16.7 °C 1007.4 hPa Calm   4.2 km/h 69 % 0.0 mm open2300-1.11 W/m2
Observations météo à CASSIS
WU-History script by Weather Underground - 1 mb